Time;durP1;ratioP1;P1;durP2;ratioP2;P2;SDS_P1;SDS_P2;PMS_P1;PMS_P2;Temp;Humidity;BMP_temperature;BMP_pressure;BME280_temperature;BME280_humidity;BME280_pressure;Samples;Min_cycle;Max_cycle;Signal;HPM_P1;HPM_P2
2023/01/18 00:00:17;;;;;;;7.13;5.18;;;23.40;60.10;;;;;;5111535;28;20039;-75
2023/01/18 00:02:45;;;;;;;12.98;5.78;;;23.40;60.20;;;;;;5100568;28;20059;-74
2023/01/18 00:05:13;;;;;;;7.53;5.03;;;23.30;60.20;;;;;;5074701;28;20078;-74
2023/01/18 00:07:39;;;;;;;7.80;5.65;;;23.30;60.60;;;;;;5074556;28;20079;-74
2023/01/18 00:10:06;;;;;;;9.10;5.43;;;23.20;60.10;;;;;;5101781;28;20072;-75
2023/01/18 00:12:32;;;;;;;12.32;5.32;;;23.20;60.80;;;;;;5075067;28;20043;-74
2023/01/18 00:14:58;;;;;;;7.57;5.70;;;23.20;60.80;;;;;;5110327;28;20471;-74
2023/01/18 00:17:24;;;;;;;4.82;4.13;;;23.30;61.00;;;;;;5103915;28;20031;-74
2023/01/18 00:19:50;;;;;;;8.32;4.70;;;23.30;60.70;;;;;;5093367;28;20108;-74
2023/01/18 00:22:16;;;;;;;8.25;4.53;;;23.30;60.70;;;;;;5113974;28;20048;-74
2023/01/18 00:24:42;;;;;;;9.07;4.10;;;23.30;60.40;;;;;;5112509;28;20683;-75
2023/01/18 00:27:09;;;;;;;5.43;3.38;;;23.30;60.00;;;;;;5114358;28;20027;-75
2023/01/18 00:29:35;;;;;;;6.32;3.70;;;23.30;60.10;;;;;;5113298;28;20039;-74
2023/01/18 00:32:01;;;;;;;6.75;4.00;;;23.30;59.30;;;;;;5108081;28;20050;-74
2023/01/18 00:34:27;;;;;;;7.80;3.67;;;23.30;59.80;;;;;;5107300;28;20038;-74
2023/01/18 00:36:53;;;;;;;5.95;3.50;;;23.10;60.00;;;;;;5113082;28;20222;-75
2023/01/18 00:39:19;;;;;;;5.97;3.63;;;23.10;60.40;;;;;;5110196;28;20035;-74
2023/01/18 00:44:29;;;;;;;5.60;3.80;;;23.10;60.50;;;;;;5113570;28;20035;-72
2023/01/18 00:46:55;;;;;;;5.20;4.07;;;23.10;60.10;;;;;;5101534;28;20020;-75
2023/01/18 00:49:22;;;;;;;7.57;3.55;;;23.20;59.20;;;;;;5073995;28;20059;-75
2023/01/18 00:51:50;;;;;;;5.63;3.08;;;23.20;60.30;;;;;;5073673;28;20037;-75
2023/01/18 00:54:17;;;;;;;6.03;3.95;;;23.20;60.50;;;;;;5080215;28;20472;-75
2023/01/18 00:56:43;;;;;;;7.45;3.00;;;23.10;60.20;;;;;;5114345;28;20424;-74
2023/01/18 00:59:09;;;;;;;4.97;3.53;;;23.10;60.50;;;;;;5079876;28;20121;-74
2023/01/18 01:01:35;;;;;;;7.85;3.15;;;23.20;59.90;;;;;;5098366;28;20032;-75
2023/01/18 01:06:46;;;;;;;4.82;2.92;;;23.30;59.20;;;;;;5093982;28;20040;-74
2023/01/18 01:09:18;;;;;;;5.80;3.55;;;23.20;57.70;;;;;;5096797;28;20573;-75
2023/01/18 01:28:12;;;;;;;3.83;2.85;;;23.20;58.80;;;;;;5093891;28;20078;-75
2023/01/18 01:30:37;;;;;;;8.60;3.25;;;23.00;58.80;;;;;;5107593;28;20027;-74
2023/01/18 01:33:03;;;;;;;5.03;2.58;;;23.00;59.40;;;;;;5093397;28;20034;-74
2023/01/18 01:35:29;;;;;;;5.90;2.95;;;22.90;59.60;;;;;;5112064;28;20107;-75
2023/01/18 01:37:55;;;;;;;4.68;2.65;;;22.90;56.70;;;;;;5091193;28;20044;-74
2023/01/18 01:40:21;;;;;;;5.38;3.08;;;22.80;60.20;;;;;;5094845;28;20027;-74
2023/01/18 01:42:48;;;;;;;4.35;2.75;;;22.90;60.00;;;;;;5083721;28;20074;-74
2023/01/18 01:45:14;;;;;;;4.82;2.90;;;23.00;60.20;;;;;;5073103;28;20089;-75
2023/01/18 01:47:43;;;;;;;8.52;2.78;;;22.90;59.70;;;;;;5100406;28;20081;-74
2023/01/18 01:50:25;;;;;;;5.70;2.72;;;22.90;60.40;;;;;;5072256;28;20039;-75
2023/01/18 01:52:51;;;;;;;5.97;2.55;;;22.80;60.40;;;;;;5113299;28;20413;-74
2023/01/18 01:55:26;;;;;;;3.55;2.28;;;23.00;59.00;;;;;;5109584;28;20030;-75
2023/01/18 01:57:58;;;;;;;5.40;2.60;;;23.10;60.40;;;;;;5112414;28;20423;-75
2023/01/18 02:00:24;;;;;;;2.60;1.80;;;23.00;60.00;;;;;;5109781;28;20031;-74
2023/01/18 02:03:16;;;;;;;9.15;2.20;;;23.00;60.40;;;;;;5092176;27;20042;-75
2023/01/18 02:05:46;;;;;;;5.25;2.58;;;23.00;60.30;;;;;;5072480;28;20120;-74
2023/01/18 02:08:21;;;;;;;2.33;2.10;;;23.10;59.20;;;;;;5072177;28;20072;-75
2023/01/18 02:10:48;;;;;;;9.18;2.60;;;23.10;59.10;;;;;;5086912;28;20050;-75
2023/01/18 02:13:15;;;;;;;7.55;2.22;;;23.20;59.90;;;;;;5113137;28;20481;-75
2023/01/18 02:15:53;;;;;;;3.95;1.90;;;23.00;59.70;;;;;;5110585;28;20035;-74
2023/01/18 02:18:54;;;;;;;5.75;2.85;;;23.00;59.90;;;;;;5088829;28;20074;-75
2023/01/18 02:22:01;;;;;;;4.20;1.98;;;23.00;60.10;;;;;;5072490;28;20036;-74
2023/01/18 02:25:11;;;;;;;4.85;2.15;;;23.00;58.20;;;;;;5033192;28;20041;-74
2023/01/18 02:27:53;;;;;;;3.42;1.60;;;22.90;59.50;;;;;;4990410;28;20059;-74
2023/01/18 02:30:30;;;;;;;3.85;2.08;;;22.90;60.10;;;;;;4988225;28;20049;-74
2023/01/18 02:33:16;;;;;;;5.20;2.65;;;22.80;59.10;;;;;;4989441;28;20454;-75
2023/01/18 02:35:54;;;;;;;6.07;1.83;;;22.90;59.30;;;;;;4984297;28;20057;-74
2023/01/18 02:38:28;;;;;;;6.68;2.22;;;22.70;59.30;;;;;;4970339;28;20046;-74
2023/01/18 02:41:08;;;;;;;6.47;2.53;;;22.90;59.40;;;;;;4984288;28;20034;-75
2023/01/18 02:46:32;;;;;;;2.55;1.92;;;22.80;60.40;;;;;;4986189;28;20073;-75
2023/01/18 02:49:22;;;;;;;6.82;1.65;;;22.80;60.40;;;;;;4989714;28;20054;-75
2023/01/18 02:51:48;;;;;;;3.70;2.28;;;22.90;60.70;;;;;;4954251;28;20047;-74
2023/01/18 02:54:23;;;;;;;5.38;2.10;;;22.90;60.50;;;;;;4970499;28;20053;-74
2023/01/18 02:56:52;;;;;;;5.55;1.92;;;22.90;60.50;;;;;;4951080;29;20134;-74
2023/01/18 02:59:24;;;;;;;8.30;2.40;;;22.90;60.70;;;;;;4951193;29;20038;-74
2023/01/18 03:02:08;;;;;;;4.50;1.65;;;22.80;60.70;;;;;;4959738;28;20043;-75
2023/01/18 03:05:03;;;;;;;6.80;2.40;;;22.90;60.70;;;;;;4993131;28;20049;-75
2023/01/18 03:07:40;;;;;;;4.18;1.67;;;22.80;60.30;;;;;;4970271;28;20058;-74
2023/01/18 03:10:09;;;;;;;6.13;1.95;;;22.80;59.90;;;;;;4970115;28;20122;-74
2023/01/18 03:12:47;;;;;;;6.53;1.92;;;22.80;60.60;;;;;;4970349;28;20039;-75
2023/01/18 03:15:50;;;;;;;5.40;1.70;;;22.80;60.00;;;;;;4969513;28;20676;-74
2023/01/18 03:18:33;;;;;;;3.85;1.92;;;22.70;60.00;;;;;;4983921;28;20125;-75
2023/01/18 03:21:04;;;;;;;5.10;1.50;;;22.70;60.60;;;;;;4977082;28;20652;-74
2023/01/18 03:23:39;;;;;;;6.80;1.65;;;22.60;60.10;;;;;;4957836;28;20444;-74
2023/01/18 03:26:09;;;;;;;8.30;2.00;;;22.60;60.60;;;;;;4979137;28;20048;-75
2023/01/18 03:34:39;;;;;;;6.63;2.45;;;22.50;58.80;;;;;;4989589;28;20027;-75
2023/01/18 03:37:11;;;;;;;7.13;2.08;;;22.60;60.70;;;;;;4997717;28;20103;-74
2023/01/18 03:39:44;;;;;;;7.50;1.75;;;22.60;60.60;;;;;;5008102;28;20022;-75
2023/01/18 03:42:18;;;;;;;3.83;1.75;;;22.60;60.40;;;;;;5009118;28;20045;-74
2023/01/18 03:44:57;;;;;;;3.05;1.77;;;22.50;60.20;;;;;;5078084;28;20032;-74
2023/01/18 03:47:23;;;;;;;3.97;1.80;;;22.70;60.60;;;;;;5091737;28;20112;-74
2023/01/18 03:49:50;;;;;;;8.63;2.10;;;22.70;60.40;;;;;;5071037;28;20040;-74
2023/01/18 03:52:22;;;;;;;4.75;1.63;;;22.70;60.40;;;;;;5070759;28;20033;-74
2023/01/18 03:54:59;;;;;;;6.60;1.85;;;22.70;60.50;;;;;;5073268;28;20023;-74
2023/01/18 03:57:43;;;;;;;10.63;2.35;;;22.70;59.70;;;;;;5108580;28;20475;-74
2023/01/18 04:00:11;;;;;;;2.83;1.63;;;22.70;58.10;;;;;;5102152;28;20020;-75
2023/01/18 04:02:41;;;;;;;6.00;1.92;;;22.70;60.40;;;;;;5081668;28;20532;-74
2023/01/18 04:05:09;;;;;;;5.07;1.80;;;22.70;60.50;;;;;;5072365;28;20040;-75
2023/01/18 04:07:35;;;;;;;4.20;2.13;;;22.70;60.10;;;;;;5111584;28;20043;-75
2023/01/18 04:10:01;;;;;;;10.27;1.90;;;22.70;60.20;;;;;;5108073;28;20487;-74
2023/01/18 04:12:27;;;;;;;6.07;1.90;;;22.60;60.00;;;;;;5111676;28;20031;-75
2023/01/18 04:14:53;;;;;;;4.95;1.80;;;22.60;60.20;;;;;;5110888;28;20024;-74
2023/01/18 04:17:19;;;;;;;5.00;2.05;;;22.60;60.20;;;;;;5076577;28;20079;-74
2023/01/18 04:19:45;;;;;;;3.25;1.80;;;22.60;59.30;;;;;;5062422;28;20161;-74
2023/01/18 04:22:11;;;;;;;10.45;2.25;;;22.60;60.10;;;;;;5111523;28;20114;-74
2023/01/18 04:24:37;;;;;;;3.60;1.20;;;22.60;60.10;;;;;;5110519;28;20047;-74
2023/01/18 04:27:03;;;;;;;6.47;2.03;;;22.70;60.10;;;;;;5109609;28;20116;-74
2023/01/18 04:29:29;;;;;;;8.15;1.77;;;22.70;59.80;;;;;;5114763;28;20399;-74
2023/01/18 04:31:55;;;;;;;6.78;2.20;;;22.70;60.00;;;;;;5091340;28;20029;-74
2023/01/18 04:34:21;;;;;;;2.78;2.05;;;22.70;60.00;;;;;;5074579;28;20103;-74
2023/01/18 04:36:48;;;;;;;3.88;1.08;;;22.80;60.00;;;;;;5103576;28;20111;-74
2023/01/18 04:39:14;;;;;;;5.90;1.75;;;22.80;59.40;;;;;;5114808;28;20063;-74
2023/01/18 04:41:40;;;;;;;6.30;1.90;;;22.70;59.70;;;;;;5112465;28;20020;-74
2023/01/18 04:44:06;;;;;;;5.82;2.13;;;22.80;59.70;;;;;;5114234;28;20043;-74
2023/01/18 04:46:33;;;;;;;4.53;1.75;;;22.80;59.70;;;;;;5100484;28;20027;-74
2023/01/18 04:48:59;;;;;;;6.05;2.03;;;22.90;59.70;;;;;;5093388;28;20048;-74
2023/01/18 04:51:26;;;;;;;5.53;2.05;;;22.70;59.70;;;;;;5103806;28;20063;-74
2023/01/18 04:53:52;;;;;;;6.53;2.00;;;22.80;60.10;;;;;;5114804;28;20453;-74
2023/01/18 04:56:18;;;;;;;5.85;1.77;;;22.70;60.00;;;;;;5112237;28;20076;-74
2023/01/18 04:58:44;;;;;;;6.40;2.42;;;22.60;59.90;;;;;;5079513;28;20038;-74
2023/01/18 05:01:12;;;;;;;8.48;2.50;;;22.50;60.60;;;;;;5083205;28;20031;-74
2023/01/18 05:03:40;;;;;;;12.02;2.67;;;22.40;60.40;;;;;;5094257;28;20043;-74
2023/01/18 05:06:11;;;;;;;6.75;2.30;;;22.40;60.90;;;;;;5093779;28;20075;-74
2023/01/18 05:08:41;;;;;;;11.90;2.38;;;22.50;61.00;;;;;;5103713;28;20069;-74
2023/01/18 05:11:09;;;;;;;6.22;1.35;;;22.40;60.60;;;;;;5111824;28;20043;-74
2023/01/18 05:13:36;;;;;;;8.52;2.22;;;22.30;60.70;;;;;;5114066;28;20030;-74
2023/01/18 05:16:04;;;;;;;9.27;2.40;;;22.30;60.60;;;;;;5101738;28;20082;-74
2023/01/18 05:18:30;;;;;;;5.65;2.38;;;22.40;60.60;;;;;;5092512;28;20040;-74
2023/01/18 05:20:56;;;;;;;9.57;2.63;;;22.30;61.10;;;;;;5092448;28;20044;-74
2023/01/18 05:23:23;;;;;;;6.20;2.72;;;22.30;61.20;;;;;;5093874;28;20056;-74
2023/01/18 05:25:56;;;;;;;7.18;2.92;;;22.30;61.20;;;;;;5105777;28;20450;-74
2023/01/18 05:28:24;;;;;;;7.90;2.50;;;22.30;60.90;;;;;;5111502;28;20043;-74
2023/01/18 05:30:51;;;;;;;5.18;2.25;;;22.40;61.00;;;;;;5103204;28;20028;-74
2023/01/18 05:33:19;;;;;;;3.63;2.33;;;22.30;60.70;;;;;;5071443;28;20485;-74
2023/01/18 05:35:53;;;;;;;6.85;2.47;;;22.50;58.10;;;;;;5073532;28;20040;-72
2023/01/18 05:38:21;;;;;;;12.70;3.17;;;22.40;51.90;;;;;;5092079;28;20551;-74
2023/01/18 05:40:51;;;;;;;10.38;4.13;;;22.40;51.60;;;;;;5108774;28;20569;-73
2023/01/18 05:43:17;;;;;;;7.78;3.50;;;22.40;51.00;;;;;;5084867;28;20039;-73
2023/01/18 05:45:43;;;;;;;8.63;3.10;;;22.50;51.00;;;;;;5084983;28;20024;-72
2023/01/18 05:48:10;;;;;;;8.55;3.35;;;22.60;49.20;;;;;;5081329;28;20472;-73
2023/01/18 05:50:40;;;;;;;8.57;3.80;;;22.60;50.10;;;;;;5081603;28;20044;-74
2023/01/18 05:53:13;;;;;;;10.70;3.78;;;22.50;50.50;;;;;;5090039;28;20034;-72
2023/01/18 05:55:40;;;;;;;7.85;2.88;;;22.50;50.10;;;;;;5086675;28;20422;-71
2023/01/18 05:58:06;;;;;;;11.98;4.28;;;22.60;51.40;;;;;;5098480;28;20362;-72
2023/01/18 06:00:33;;;;;;;6.85;2.83;;;22.60;51.80;;;;;;5077537;28;20108;-73
2023/01/18 06:02:59;;;;;;;10.50;3.42;;;22.60;50.50;;;;;;5091266;28;20028;-72
2023/01/18 06:05:25;;;;;;;10.98;6.80;;;22.60;48.90;;;;;;5071796;28;20115;-70
2023/01/18 06:07:51;;;;;;;10.45;4.50;;;22.60;48.60;;;;;;5098581;28;20116;-72
2023/01/18 06:10:17;;;;;;;6.38;4.47;;;22.50;50.30;;;;;;5105918;28;20469;-73
2023/01/18 06:12:44;;;;;;;4.28;3.25;;;22.50;49.70;;;;;;5101929;28;20032;-72
2023/01/18 06:15:11;;;;;;;7.00;3.13;;;22.40;51.50;;;;;;5084827;28;20115;-73
2023/01/18 06:17:38;;;;;;;4.15;2.25;;;22.60;58.50;;;;;;5095774;28;20023;-74
2023/01/18 06:20:05;;;;;;;2.55;1.85;;;22.60;61.40;;;;;;5107526;28;20040;-74
2023/01/18 06:22:31;;;;;;;6.82;2.40;;;22.80;60.60;;;;;;5081668;28;20037;-73
2023/01/18 06:24:57;;;;;;;8.32;2.28;;;22.80;60.60;;;;;;5108628;28;20042;-73
2023/01/18 06:27:23;;;;;;;12.20;2.70;;;22.80;59.40;;;;;;5077772;28;20042;-72
2023/01/18 06:29:49;;;;;;;4.97;2.75;;;22.80;58.90;;;;;;5087384;28;20089;-73
2023/01/18 06:32:15;;;;;;;13.02;3.58;;;22.80;58.60;;;;;;5077106;28;20032;-73
2023/01/18 06:34:41;;;;;;;8.05;3.40;;;22.90;58.20;;;;;;5092319;28;20403;-74
2023/01/18 06:37:07;;;;;;;12.77;3.28;;;22.80;55.60;;;;;;5089731;28;20035;-77
2023/01/18 06:39:34;;;;;;;8.25;4.03;;;22.70;55.60;;;;;;5081607;28;20029;-74
2023/01/18 06:42:01;;;;;;;10.20;3.97;;;22.70;55.80;;;;;;5084569;28;20016;-75
2023/01/18 06:44:27;;;;;;;7.93;3.45;;;22.80;55.60;;;;;;5092455;28;20035;-75
2023/01/18 06:46:53;;;;;;;5.75;3.10;;;22.80;56.30;;;;;;5080260;28;20028;-76
2023/01/18 06:49:19;;;;;;;8.32;3.55;;;22.70;53.80;;;;;;5086870;28;20047;-74
2023/01/18 06:51:45;;;;;;;5.85;2.78;;;22.80;56.40;;;;;;5108864;28;20540;-78
2023/01/18 06:54:11;;;;;;;9.65;2.97;;;22.80;56.70;;;;;;5099509;28;20036;-74
2023/01/18 06:56:37;;;;;;;8.45;3.50;;;22.80;55.10;;;;;;5098014;28;20110;-75
2023/01/18 06:59:03;;;;;;;7.50;3.00;;;23.00;56.90;;;;;;5112018;28;20551;-75
2023/01/18 07:01:29;;;;;;;4.78;2.90;;;22.90;56.90;;;;;;5096843;28;20034;-71
2023/01/18 07:03:55;;;;;;;10.35;3.50;;;23.00;55.00;;;;;;5083760;28;20038;-74
2023/01/18 07:06:21;;;;;;;10.65;4.22;;;23.00;54.10;;;;;;5110470;28;20081;-73
2023/01/18 07:08:48;;;;;;;8.38;3.03;;;22.90;56.10;;;;;;5094499;28;20056;-74
2023/01/18 07:11:16;;;;;;;6.50;3.10;;;22.90;56.30;;;;;;5055625;28;20048;-74
2023/01/18 07:13:42;;;;;;;6.43;3.38;;;23.00;56.00;;;;;;5091867;28;20060;-77
2023/01/18 07:16:16;;;;;;;9.23;2.72;;;22.90;55.90;;;;;;5081322;28;20028;-77
2023/01/18 07:18:47;;;;;;;7.75;3.03;;;22.80;55.60;;;;;;5095551;28;20035;-77
2023/01/18 07:21:15;;;;;;;7.78;3.10;;;23.00;54.40;;;;;;5095106;28;20110;-77
2023/01/18 07:23:42;;;;;;;12.02;3.35;;;22.90;54.90;;;;;;5100781;28;20027;-77
2023/01/18 07:26:16;;;;;;;5.70;3.20;;;22.80;55.90;;;;;;5111458;28;20119;-77
2023/01/18 07:28:46;;;;;;;9.13;2.83;;;22.80;53.70;;;;;;5111890;28;20027;-77
2023/01/18 07:31:13;;;;;;;4.25;2.42;;;22.70;54.40;;;;;;5105363;28;20040;-76
2023/01/18 07:33:39;;;;;;;9.30;3.83;;;22.70;56.60;;;;;;5092991;28;20446;-77
2023/01/18 07:36:06;;;;;;;8.85;3.00;;;22.80;55.40;;;;;;5089232;28;20020;-77
2023/01/18 07:38:32;;;;;;;5.93;2.28;;;22.70;54.50;;;;;;5071018;28;20497;-77
2023/01/18 07:41:07;;;;;;;4.35;2.28;;;22.80;55.50;;;;;;5071423;28;20035;-77
2023/01/18 07:43:36;;;;;;;8.57;2.47;;;22.70;56.70;;;;;;5070131;28;20071;-77
2023/01/18 07:46:03;;;;;;;6.10;2.72;;;22.80;56.50;;;;;;5071133;28;20476;-77
2023/01/18 07:48:30;;;;;;;10.60;2.92;;;22.80;56.80;;;;;;5093376;28;20031;-77
2023/01/18 07:50:58;;;;;;;11.82;2.83;;;22.80;56.40;;;;;;5089972;28;20032;-76
2023/01/18 07:53:26;;;;;;;3.88;2.60;;;22.90;54.50;;;;;;5091132;28;20032;-77
2023/01/18 07:55:52;;;;;;;4.22;2.85;;;23.00;57.40;;;;;;5090273;28;20062;-77
2023/01/18 07:58:19;;;;;;;8.75;2.90;;;23.00;57.50;;;;;;5091020;28;20032;-77
2023/01/18 08:00:45;;;;;;;7.72;2.92;;;23.00;55.80;;;;;;5089415;28;20473;-77
2023/01/18 08:03:13;;;;;;;6.70;2.25;;;22.90;54.50;;;;;;5094089;28;20024;-77
2023/01/18 08:05:43;;;;;;;4.95;2.60;;;22.90;55.80;;;;;;5096366;28;20059;-75
2023/01/18 08:08:14;;;;;;;6.05;2.90;;;22.90;56.00;;;;;;5108954;28;20299;-77
2023/01/18 08:10:40;;;;;;;7.85;2.67;;;22.80;54.30;;;;;;5094635;28;20072;-78
2023/01/18 08:13:10;;;;;;;7.43;3.38;;;22.90;52.00;;;;;;5094598;28;20044;-77
2023/01/18 08:15:39;;;;;;;20.67;5.18;;;23.00;52.10;;;;;;5095024;28;20076;-79
2023/01/18 08:18:07;;;;;;;11.70;3.25;;;23.10;51.80;;;;;;5105753;28;20176;-76
2023/01/18 08:20:33;;;;;;;8.63;3.45;;;23.30;52.30;;;;;;5112578;28;20110;-76
2023/01/18 08:23:00;;;;;;;6.88;3.10;;;23.30;52.70;;;;;;5107457;28;20036;-76
2023/01/18 08:25:28;;;;;;;6.50;3.38;;;23.30;47.60;;;;;;5109183;28;20039;-80
2023/01/18 08:27:57;;;;;;;6.00;2.95;;;23.40;46.30;;;;;;5115311;28;20133;-82
2023/01/18 08:30:34;;;;;;;10.25;3.70;;;23.40;45.30;;;;;;5107956;28;20039;-81
2023/01/18 08:33:01;;;;;;;8.80;3.30;;;23.30;45.50;;;;;;5110137;28;20119;-77
2023/01/18 08:35:30;;;;;;;9.25;3.67;;;23.40;45.30;;;;;;5112406;28;20487;-81
2023/01/18 08:37:58;;;;;;;6.97;3.08;;;23.40;45.20;;;;;;5082748;28;20024;-78
2023/01/18 08:40:24;;;;;;;6.47;3.00;;;23.30;44.60;;;;;;5087226;28;20446;-78
2023/01/18 08:43:01;;;;;;;7.03;3.05;;;23.40;43.90;;;;;;5094799;28;20040;-77
2023/01/18 08:45:27;;;;;;;3.83;2.65;;;23.40;44.30;;;;;;5085866;28;20451;-78
2023/01/18 08:48:04;;;;;;;7.18;2.50;;;23.40;43.90;;;;;;5078583;28;20500;-78
2023/01/18 08:50:32;;;;;;;5.07;2.33;;;23.30;43.40;;;;;;5095688;28;20452;-76
2023/01/18 08:52:58;;;;;;;7.63;2.20;;;23.40;50.40;;;;;;5090691;28;20029;-71
2023/01/18 08:55:26;;;;;;;7.88;2.72;;;23.30;52.20;;;;;;5092863;28;20036;-78
2023/01/18 08:57:58;;;;;;;4.40;2.00;;;23.30;52.50;;;;;;5087755;28;20361;-78
2023/01/18 09:00:29;;;;;;;3.57;2.23;;;23.10;52.70;;;;;;5093383;28;20392;-78
2023/01/18 09:02:55;;;;;;;4.20;2.30;;;23.10;53.90;;;;;;5100628;28;20276;-76
2023/01/18 09:05:23;;;;;;;8.95;3.00;;;23.20;54.80;;;;;;5109682;28;20039;-78
2023/01/18 09:07:53;;;;;;;6.78;2.38;;;23.10;51.90;;;;;;5113125;28;20089;-75
2023/01/18 09:10:21;;;;;;;6.80;3.58;;;23.10;55.70;;;;;;5096752;28;20101;-77
2023/01/18 09:12:47;;;;;;;6.45;2.85;;;23.10;56.90;;;;;;5087818;28;20028;-79
2023/01/18 09:15:13;;;;;;;6.43;2.63;;;23.20;55.00;;;;;;5090045;28;20515;-78
2023/01/18 09:17:39;;;;;;;3.63;1.92;;;23.20;54.10;;;;;;5099537;28;20028;-76
2023/01/18 09:20:10;;;;;;;6.55;2.33;;;23.20;56.10;;;;;;5065680;28;20047;-75
2023/01/18 09:22:37;;;;;;;8.00;2.83;;;23.20;57.30;;;;;;5092650;28;20147;-76
2023/01/18 09:25:04;;;;;;;4.88;2.10;;;23.10;56.80;;;;;;5094656;28;20028;-76
2023/01/18 09:27:31;;;;;;;6.68;2.25;;;23.20;57.20;;;;;;5112726;28;20049;-76
2023/01/18 09:29:57;;;;;;;8.38;2.25;;;23.10;56.80;;;;;;5103500;28;20020;-76
2023/01/18 09:32:24;;;;;;;5.68;2.08;;;23.20;53.20;;;;;;5073224;28;20036;-76
2023/01/18 09:34:50;;;;;;;4.60;2.08;;;23.20;56.70;;;;;;5073277;28;20056;-76
2023/01/18 09:37:18;;;;;;;4.53;1.80;;;23.30;57.00;;;;;;5081698;28;20021;-76
2023/01/18 09:39:44;;;;;;;4.90;2.03;;;23.20;56.90;;;;;;5093271;28;20062;-76
2023/01/18 09:42:22;;;;;;;4.68;1.73;;;23.30;57.00;;;;;;5092958;28;20024;-77
2023/01/18 09:44:55;;;;;;;5.80;2.05;;;23.30;57.00;;;;;;5091149;28;20176;-76
2023/01/18 09:47:25;;;;;;;3.83;1.58;;;23.30;56.90;;;;;;5092689;28;20078;-76
2023/01/18 09:50:01;;;;;;;4.68;2.08;;;23.20;56.60;;;;;;5093138;28;20024;-77
2023/01/18 09:52:46;;;;;;;5.43;2.15;;;23.20;56.70;;;;;;5092816;28;20040;-76
2023/01/18 09:55:27;;;;;;;2.17;1.65;;;23.20;56.60;;;;;;5093063;28;20093;-76
2023/01/18 09:58:02;;;;;;;2.75;1.40;;;23.20;56.50;;;;;;5093097;28;20063;-79
2023/01/18 10:00:32;;;;;;;2.92;1.40;;;23.20;55.50;;;;;;5090048;28;20042;-77
2023/01/18 10:03:02;;;;;;;4.15;2.22;;;23.20;56.90;;;;;;5090127;28;20500;-77
2023/01/18 10:05:34;;;;;;;4.68;2.17;;;23.10;56.80;;;;;;5091533;28;20365;-76
2023/01/18 10:08:12;;;;;;;6.18;2.55;;;23.10;56.90;;;;;;5092263;28;20052;-76
2023/01/18 10:10:52;;;;;;;4.90;1.42;;;23.20;56.70;;;;;;5089651;28;20040;-76
2023/01/18 10:13:37;;;;;;;0.50;0.50;;;23.10;56.80;;;;;;5092699;28;20055;-76
2023/01/18 10:16:14;;;;;;;5.40;2.00;;;23.30;57.00;;;;;;5091467;28;20048;-76
2023/01/18 10:18:47;;;;;;;2.83;1.88;;;23.20;56.90;;;;;;5092424;28;20123;-76
2023/01/18 10:21:34;;;;;;;6.35;2.13;;;23.10;56.90;;;;;;5092550;28;20089;-76
2023/01/18 10:24:16;;;;;;;4.93;1.67;;;23.10;56.60;;;;;;5106186;28;20111;-77
2023/01/18 10:26:46;;;;;;;2.42;1.55;;;23.10;56.90;;;;;;5111899;28;20046;-76
2023/01/18 10:29:13;;;;;;;5.18;1.63;;;23.20;56.70;;;;;;5092692;28;20048;-78
2023/01/18 10:32:00;;;;;;;5.10;2.50;;;23.20;56.20;;;;;;5070989;28;20044;-75
2023/01/18 10:34:41;;;;;;;2.80;1.73;;;23.20;55.90;;;;;;5053402;28;20045;-77
2023/01/18 10:37:25;;;;;;;3.65;1.35;;;23.10;55.80;;;;;;5071275;28;20032;-78
2023/01/18 10:39:51;;;;;;;6.63;2.17;;;23.20;55.90;;;;;;5071958;28;20664;-75
2023/01/18 10:42:24;;;;;;;2.22;1.70;;;23.20;56.10;;;;;;5069682;28;20075;-74
2023/01/18 10:44:51;;;;;;;5.88;2.60;;;23.30;56.40;;;;;;5090646;28;20020;-73
2023/01/18 10:47:18;;;;;;;4.90;1.90;;;23.20;56.50;;;;;;5082525;28;20106;-73
2023/01/18 10:49:47;;;;;;;4.38;2.25;;;23.20;56.60;;;;;;5071825;28;20036;-75
2023/01/18 10:52:16;;;;;;;5.07;2.65;;;23.10;56.80;;;;;;5087176;28;20047;-73
2023/01/18 10:54:54;;;;;;;6.97;3.15;;;23.50;62.20;;;;;;5099054;28;20036;-76
2023/01/18 10:57:31;;;;;;;6.63;2.45;;;23.80;61.50;;;;;;5095952;28;20061;-81
2023/01/18 10:59:58;;;;;;;7.43;2.90;;;23.90;63.60;;;;;;5089510;28;20024;-78
2023/01/18 11:02:31;;;;;;;5.93;2.45;;;23.90;52.80;;;;;;5093244;28;20024;-73
2023/01/18 11:04:58;;;;;;;;;;;23.90;53.80;;;;;;5076880;28;20040;-78
2023/01/18 11:07:28;;;;;;;6.03;2.65;;;23.90;48.50;;;;;;5084949;28;20364;-77
2023/01/18 11:10:00;;;;;;;5.30;2.17;;;23.70;47.20;;;;;;5077779;28;20043;-75
2023/01/18 11:12:46;;;;;;;5.65;2.22;;;23.70;49.80;;;;;;5071601;28;20042;-76
2023/01/18 11:15:12;;;;;;;6.05;2.13;;;23.80;48.30;;;;;;5081508;28;20091;-72
2023/01/18 11:17:42;;;;;;;6.63;2.00;;;23.90;50.70;;;;;;5085559;28;20114;-72
2023/01/18 11:20:33;;;;;;;5.88;2.50;;;23.90;48.20;;;;;;5076137;28;20043;-74
2023/01/18 11:23:20;;;;;;;9.63;2.40;;;23.80;44.90;;;;;;5091584;28;20500;-75
2023/01/18 11:25:48;;;;;;;1.40;1.25;;;23.80;46.40;;;;;;5043846;28;20072;-77
2023/01/18 11:28:21;;;;;;;4.38;1.85;;;23.70;55.90;;;;;;5029091;28;20112;-74
2023/01/18 11:31:04;;;;;;;7.97;2.25;;;23.80;57.00;;;;;;5029669;28;20033;-74
2023/01/18 11:33:30;;;;;;;4.10;2.08;;;23.80;57.10;;;;;;5035949;28;20079;-76
2023/01/18 11:35:58;;;;;;;8.40;2.15;;;23.80;55.30;;;;;;5027691;28;20038;-75
2023/01/18 11:38:33;;;;;;;5.15;2.25;;;23.80;57.20;;;;;;4984439;28;20053;-75
2023/01/18 11:41:25;;;;;;;4.50;2.80;;;23.80;57.30;;;;;;5036872;28;20128;-74
2023/01/18 11:44:01;;;;;;;8.10;2.25;;;23.80;57.30;;;;;;4939842;29;20043;-71
2023/01/18 11:46:42;;;;;;;4.60;2.20;;;23.80;57.20;;;;;;4933202;29;20114;-72
2023/01/18 11:49:26;;;;;;;7.35;2.35;;;24.00;55.40;;;;;;4932012;29;20583;-75
2023/01/18 11:52:17;;;;;;;8.20;2.17;;;24.10;52.90;;;;;;4934596;29;20491;-74
2023/01/18 11:54:52;;;;;;;4.78;2.85;;;24.50;58.90;;;;;;4929507;29;20044;-74
2023/01/18 11:57:19;;;;;;;7.82;2.95;;;24.50;54.50;;;;;;4938184;29;20595;-79
2023/01/18 11:59:46;;;;;;;3.83;1.80;;;24.50;48.40;;;;;;4934049;29;20047;-80
2023/01/18 12:02:56;;;;;;;3.97;2.13;;;24.40;54.00;;;;;;4959662;28;20054;-80
2023/01/18 12:05:30;;;;;;;5.15;2.50;;;24.30;56.00;;;;;;4953384;29;20042;-82
2023/01/18 12:08:13;;;;;;;6.47;2.40;;;24.40;56.20;;;;;;4954281;29;20081;-75
2023/01/18 12:10:49;;;;;;;7.68;1.83;;;24.30;56.30;;;;;;4954230;29;20055;-75
2023/01/18 12:13:42;;;;;;;10.32;2.17;;;24.30;56.20;;;;;;4934066;29;20496;-75
2023/01/18 12:16:23;;;;;;;3.13;1.83;;;24.40;56.30;;;;;;4952444;29;20188;-80
2023/01/18 12:19:09;;;;;;;4.88;1.98;;;24.20;56.20;;;;;;4953972;29;20472;-80
2023/01/18 12:22:06;;;;;;;3.63;1.92;;;24.30;56.10;;;;;;5005703;28;20050;-75
2023/01/18 12:24:50;;;;;;;12.20;2.20;;;24.10;56.40;;;;;;5011082;28;20038;-76
2023/01/18 12:27:45;;;;;;;3.53;1.63;;;24.10;56.40;;;;;;5011367;28;20037;-75
2023/01/18 12:30:23;;;;;;;6.38;1.83;;;24.10;56.50;;;;;;4995121;28;20088;-78
2023/01/18 12:33:01;;;;;;;3.60;1.75;;;24.20;56.60;;;;;;4992777;28;20050;-75
2023/01/18 12:35:55;;;;;;;5.00;2.58;;;24.20;56.70;;;;;;5008934;28;20045;-77
2023/01/18 12:38:26;;;;;;;4.85;2.15;;;24.10;56.90;;;;;;5012066;28;20042;-75
2023/01/18 12:41:35;;;;;;;3.63;2.25;;;24.10;56.80;;;;;;5019290;28;20088;-74
2023/01/18 12:44:10;;;;;;;5.47;2.13;;;24.00;51.10;;;;;;5073856;28;20040;-80
2023/01/18 12:46:45;;;;;;;2.15;1.30;;;24.00;48.60;;;;;;5090727;28;20111;-77
2023/01/18 12:49:17;;;;;;;7.20;2.50;;;24.00;50.10;;;;;;5092436;28;20032;-79
2023/01/18 12:51:47;;;;;;;5.15;2.25;;;24.00;56.20;;;;;;5094315;28;20054;-80
2023/01/18 12:54:16;;;;;;;7.75;2.58;;;24.10;55.90;;;;;;5075990;28;20080;-76
2023/01/18 12:56:46;;;;;;;7.63;2.88;;;24.00;56.20;;;;;;5091834;28;20031;-76
2023/01/18 12:59:21;;;;;;;6.43;2.40;;;24.00;56.70;;;;;;5092919;28;20384;-80
2023/01/18 13:02:23;;;;;;;4.25;2.03;;;24.00;56.70;;;;;;5110491;28;20039;-78
2023/01/18 13:05:34;;;;;;;4.47;2.67;;;24.10;56.60;;;;;;5080580;28;20048;-74
2023/01/18 13:08:10;;;;;;;8.35;3.00;;;24.10;56.70;;;;;;5011140;28;20042;-79
2023/01/18 13:10:37;;;;;;;8.90;3.60;;;23.90;52.90;;;;;;5010959;28;20050;-77
2023/01/18 13:13:05;;;;;;;4.53;2.35;;;24.00;53.10;;;;;;5011336;28;20052;-73
2023/01/18 13:15:55;;;;;;;8.40;2.90;;;24.00;51.70;;;;;;5011298;28;20584;-75
2023/01/18 13:18:35;;;;;;;11.48;4.18;;;23.90;54.20;;;;;;5011116;28;20402;-74
2023/01/18 13:21:26;;;;;;;12.38;2.83;;;23.90;62.30;;;;;;5011401;28;20041;-75
2023/01/18 13:24:10;;;;;;;10.25;3.25;;;23.90;62.00;;;;;;5011208;28;20053;-75
2023/01/18 13:26:36;;;;;;;4.15;2.10;;;23.90;59.60;;;;;;5003074;28;20042;-77
2023/01/18 13:29:21;;;;;;;10.35;2.65;;;24.00;59.50;;;;;;5007574;28;20104;-74
2023/01/18 13:31:48;;;;;;;7.05;2.88;;;23.90;58.80;;;;;;4991496;28;20038;-78
2023/01/18 13:34:23;;;;;;;8.75;2.90;;;23.80;58.50;;;;;;4991343;28;20038;-78
2023/01/18 13:36:49;;;;;;;6.68;2.47;;;24.00;58.50;;;;;;4991492;28;20503;-75
2023/01/18 13:39:18;;;;;;;5.70;3.22;;;24.00;58.30;;;;;;5002973;28;20053;-75